CheckWX is a tool to help pilots better visualize weather data.  It is not intended as a substitute for an official pre-flight weather briefing.

21:30:06 UTC

KGBK METAR
Magnolia
Magnolia, Louisiana, USA
Current

15 mins ago

KGBK 232115Z AUTO 09011G17KT 7SM CLR 29/25 A3004 RMK A01
Observed
May-23 @ 21:15 UTC
Wind
  • 090° at 11 KTS
  • Gusting to 17 KTS
Visibility
7 SM
Flight Rules
VFR
Cloud Levels
  • Clear skies
Temperature
29°C / 84°F
Dewpoint
25°C / 77°F
Heat Index
34°C / 94°F
Humidity
79%
Altimeter
30.04" Hg
Pressure
1017.32 hPa
Previous

35 mins ago

KGBK 232055Z AUTO 09012KT 6SM HZ CLR 29/25 A3004 RMK A01
Observed
May-23 @ 20:55 UTC
Wind
  • 090° at 12 KTS
Visibility
6 SM
Flight Rules
VFR
Conditions
Haze
Cloud Levels
  • Clear skies
Temperature
29°C / 84°F
Dewpoint
25°C / 77°F
Heat Index
34°C / 94°F
Humidity
79%
Altimeter
30.04" Hg
Pressure
1017.32 hPa
Previous

55 mins ago

KGBK 232035Z AUTO 08010KT 6SM HZ CLR 29/25 A3005 RMK A01
Observed
May-23 @ 20:35 UTC
Wind
  • 080° at 10 KTS
Visibility
6 SM
Flight Rules
VFR
Conditions
Haze
Cloud Levels
  • Clear skies
Temperature
29°C / 84°F
Dewpoint
25°C / 77°F
Heat Index
34°C / 94°F
Humidity
79%
Altimeter
30.05" Hg
Pressure
1017.62 hPa